Terminal Aerodrome Forecast
Issued by NWS Charleston, WV

Home | Current Version | Previous Version | Text Only | Print | Product List | Glossary On
Versions: 1 2 3 4 5 6 7 8 9 10 11 12 13 14 15 16 17 18 19 20 21 22 23
000
FTUS41 KRLX 271400 AAA
TAFPKB
TAF AMD
KPKB 271459Z 2715/2812 30006KT P6SM FEW025 SCT040
     FM272000 28009KT P6SM BKN030
     FM281000 29004KT P6SM BKN035=

USA.gov is the U.S. government's official web portal to all federal, state and local government web resources and services.